Terminal Aerodrome Forecast
Issued by NWS Norman, OK

Home | Current Version | Previous Version | Text Only | Print | Product List | Glossary On
Versions: 1 2 3 4 5 6 7 8 9 10 11 12 13 14 15 16 17 18
000
FTUS44 KOUN 311213 AAB
TAFOKC
TAF AMD
KOKC 311213Z 3112/0112 14006KT P6SM BKN040
     FM311230 35020G35KT P6SM BKN035
     FM311500 05010KT 4SM -TSRA BKN030CB
     FM312100 08008KT P6SM OVC035 PROB30 3121/0103 4SM -TSRA
      OVC025CB
     FM010300 03006KT P6SM OVC035 PROB30 0103/0109 4SM -TSRA
      OVC025CB=

USA.gov is the U.S. government's official web portal to all federal, state and local government web resources and services.